Stouffville Airport

CA-0635 · 安大略, 加拿大

罗盘
风向 的 风向 030°
风: 4 kt, 2 beaufort

添加一条跑道以查看侧风和逆风信息。

添置 跑道
0 ft 1.000 2.000 3.000 4.000 5.000
没有云
METAR CYOO 062000Z AUTO 03004KT 9SM CLR M01/M06 A3025 RMK SLP253

METAR Stouffville Airport - CA-0635

Stouffville Airport是,加拿大中的小机场。 视场标高为972 ft。 该领域的国际民航组织标志是CA-0635.

这份报告是针对2023年2月6日 15:00, 当地时间在Toronto/Oshawa Executive Airport进行的。

机场观察

风向为030°,速度为4 kt。

可见度为9 mi。

有没有云。 没有观察到天花板。

温度为-1 °C,阵风为-6 °C。 露点为-6 °C,相对湿度为69%。 海平面上的气压为30,25 inHg (QNH)。

白天

今天,太阳从07:28升起,在17:33降落。 这适用于Stouffville Airport,世界夏令时可能有所不同。 当地时间与世界标准时间之间的时差为-5 小时。 当前,没有夏令时有效。

公司介绍

我们没有关于这个机场的公司信息。

体会

到Vliegles.nl去找飞行课程,跳伞和其他飞行体验。 浏览页面,了解Stouffville Airport附近所有可用的活动。 你也可以使用搜索功能来寻找你所在地附近的特定飞行课程、跳伞或其他飞行体验。

乌云

- CLR 没有云

温度 & 天气

温度 -1 °C
露点 -6 °C
相对湿度 69%
风寒 -6 °C
Kp-index 3 (0-9)

评论

SLP253海平面压力为30,28 inHg (30,28 inHg)

白天

日出
07:26
中午
12:29
日落
17:32 (2:11)

小工具

你想在你的网站上有一个关于Stouffville Airport的当前航空天气(METAR)的小部件吗?

显示HTML代码

我们和第三方通过cookies跟踪您在我们网站上的互联网行为。如果你继续,我们认为你同意我们的饼干政策